Time;durP1;ratioP1;P1;durP2;ratioP2;P2;SDS_P1;SDS_P2;PMS_P1;PMS_P2;Temp;Humidity;BMP_temperature;BMP_pressure;BME280_temperature;BME280_humidity;BME280_pressure;Samples;Min_cycle;Max_cycle;Signal;HPM_P1;HPM_P2
2021/08/24 00:00:34;;;;;;;6.30;3.80;;;17.40;99.90;;;;;;5072227;28;20168;-77
2021/08/24 00:03:01;;;;;;;6.90;4.13;;;17.30;99.90;;;;;;5071772;28;20616;-77
2021/08/24 00:05:37;;;;;;;6.00;3.77;;;17.20;99.90;;;;;;5071666;28;20176;-77
2021/08/24 00:08:05;;;;;;;5.67;4.20;;;17.10;99.90;;;;;;5054230;28;20186;-77
2021/08/24 00:10:43;;;;;;;7.17;3.47;;;17.10;99.90;;;;;;5072415;28;20222;-77
2021/08/24 00:13:09;;;;;;;6.50;4.13;;;17.10;99.90;;;;;;5072369;28;20165;-79
2021/08/24 00:15:35;;;;;;;6.07;3.93;;;17.10;99.90;;;;;;5072443;28;20643;-78
2021/08/24 00:18:01;;;;;;;5.60;4.13;;;17.10;99.90;;;;;;5072054;28;20169;-78
2021/08/24 00:20:31;;;;;;;8.30;4.20;;;17.10;99.90;;;;;;5075520;28;20640;-78
2021/08/24 00:23:03;;;;;;;6.30;4.20;;;17.10;99.90;;;;;;5075656;28;20661;-76
2021/08/24 00:25:29;;;;;;;7.50;4.30;;;17.00;99.90;;;;;;5057897;28;20520;-77
2021/08/24 00:27:55;;;;;;;5.30;3.90;;;17.00;99.90;;;;;;5075744;28;20660;-77
2021/08/24 00:30:20;;;;;;;7.83;4.53;;;16.90;99.90;;;;;;5075702;28;20307;-77
2021/08/24 00:32:46;;;;;;;6.53;4.53;;;16.90;99.90;;;;;;5075635;28;20226;-77
2021/08/24 00:35:11;;;;;;;9.83;4.40;;;16.90;99.90;;;;;;5075793;28;20176;-78
2021/08/24 00:37:37;;;;;;;8.97;4.50;;;16.80;99.90;;;;;;5075768;28;20172;-76
2021/08/24 00:40:05;;;;;;;7.57;4.67;;;16.90;99.90;;;;;;5075741;28;20610;-79
2021/08/24 00:42:31;;;;;;;6.50;4.43;;;16.70;99.90;;;;;;5075657;28;20251;-77
2021/08/24 00:44:56;;;;;;;6.63;5.00;;;16.70;99.90;;;;;;5075394;28;20570;-76
2021/08/24 00:47:26;;;;;;;8.10;4.77;;;16.70;99.90;;;;;;5075231;28;20774;-79
2021/08/24 00:49:55;;;;;;;6.97;4.60;;;16.70;99.90;;;;;;5074736;28;20216;-76
2021/08/24 00:52:24;;;;;;;7.70;4.50;;;16.60;99.90;;;;;;5075565;28;20183;-77
2021/08/24 00:54:50;;;;;;;6.87;4.90;;;16.60;99.90;;;;;;5075077;28;20179;-77
2021/08/24 00:57:23;;;;;;;6.93;5.27;;;16.60;99.90;;;;;;5075287;28;20192;-77
2021/08/24 00:59:49;;;;;;;7.00;4.63;;;16.60;99.90;;;;;;5056837;28;20710;-77
2021/08/24 01:02:17;;;;;;;5.87;4.53;;;16.60;99.90;;;;;;5057018;28;20704;-77
2021/08/24 01:04:45;;;;;;;6.80;4.63;;;16.60;99.90;;;;;;5056663;28;20168;-76
2021/08/24 01:07:39;;;;;;;7.80;5.00;;;16.50;99.90;;;;;;5080843;28;20243;-76
2021/08/24 01:10:22;;;;;;;6.47;5.00;;;16.40;99.90;;;;;;5048242;28;20269;-76
2021/08/24 01:13:19;;;;;;;7.37;4.57;;;16.50;99.90;;;;;;5074895;28;20217;-77
2021/08/24 01:15:45;;;;;;;9.97;5.47;;;16.40;99.90;;;;;;5074631;28;20160;-77
2021/08/24 01:18:20;;;;;;;8.87;5.47;;;16.40;99.90;;;;;;5074674;28;20507;-77
2021/08/24 01:20:52;;;;;;;7.90;5.40;;;16.50;99.90;;;;;;5074509;28;20203;-78
2021/08/24 01:23:38;;;;;;;6.77;5.43;;;16.40;99.90;;;;;;5056924;28;20172;-77
2021/08/24 01:26:10;;;;;;;7.70;5.47;;;16.40;99.90;;;;;;5075017;28;20653;-77
2021/08/24 01:29:01;;;;;;;6.57;5.00;;;16.30;99.90;;;;;;5075468;28;20192;-77
2021/08/24 01:31:54;;;;;;;9.00;5.17;;;16.30;99.90;;;;;;5098925;28;20179;-76
2021/08/24 01:34:32;;;;;;;9.70;5.30;;;16.30;99.90;;;;;;5084162;28;20179;-77
2021/08/24 01:37:03;;;;;;;10.63;5.83;;;16.20;99.90;;;;;;5076070;28;20197;-76
2021/08/24 01:39:51;;;;;;;8.07;5.73;;;16.10;99.90;;;;;;5079726;28;20176;-76
2021/08/24 01:42:21;;;;;;;9.40;5.60;;;16.00;99.90;;;;;;5078934;28;20156;-77
2021/08/24 01:45:16;;;;;;;7.73;5.23;;;16.00;99.90;;;;;;5075842;28;20254;-78
2021/08/24 01:48:19;;;;;;;7.87;5.40;;;16.00;99.90;;;;;;5060817;28;20192;-78
2021/08/24 01:50:49;;;;;;;7.90;5.97;;;15.90;99.90;;;;;;5021541;28;20690;-77
2021/08/24 01:53:35;;;;;;;8.10;5.90;;;16.00;99.90;;;;;;5074306;28;20174;-76
2021/08/24 01:56:20;;;;;;;6.77;5.53;;;15.90;99.90;;;;;;5079579;28;20162;-76
2021/08/24 01:58:54;;;;;;;8.70;5.73;;;15.90;99.90;;;;;;5098393;28;20187;-77
2021/08/24 02:01:30;;;;;;;8.57;6.40;;;15.80;99.90;;;;;;5076663;28;20655;-78
2021/08/24 02:04:07;;;;;;;8.00;5.57;;;15.80;99.90;;;;;;5075269;28;20258;-78
2021/08/24 02:06:37;;;;;;;7.77;5.67;;;15.80;99.90;;;;;;5074006;28;20181;-78
2021/08/24 02:09:17;;;;;;;7.30;6.13;;;15.80;99.90;;;;;;5074018;28;20279;-78
2021/08/24 02:11:44;;;;;;;12.77;6.30;;;15.70;99.90;;;;;;5073899;28;20640;-77
2021/08/24 02:14:14;;;;;;;7.67;6.00;;;15.70;99.90;;;;;;5073746;28;20164;-77
2021/08/24 02:16:42;;;;;;;8.90;6.27;;;15.60;99.90;;;;;;5073797;28;20164;-77
2021/08/24 02:19:21;;;;;;;7.57;5.67;;;15.60;99.90;;;;;;5073826;28;20165;-76
2021/08/24 02:21:53;;;;;;;9.30;6.17;;;15.60;99.90;;;;;;5073594;28;20173;-76
2021/08/24 02:24:24;;;;;;;8.90;6.20;;;15.60;99.90;;;;;;5055793;28;20755;-77
2021/08/24 02:26:51;;;;;;;8.70;5.83;;;15.50;99.90;;;;;;5073497;28;20172;-78
2021/08/24 02:29:17;;;;;;;9.33;6.30;;;15.60;99.90;;;;;;5073238;28;20296;-77
2021/08/24 02:31:45;;;;;;;7.80;6.10;;;15.50;99.90;;;;;;5073493;28;20286;-79
2021/08/24 02:34:27;;;;;;;10.50;6.17;;;15.50;99.90;;;;;;5073412;28;20194;-79
2021/08/24 02:37:16;;;;;;;7.17;5.83;;;15.50;99.90;;;;;;5073562;28;20168;-78
2021/08/24 02:39:59;;;;;;;10.10;5.90;;;15.40;99.90;;;;;;5084567;28;20154;-76
2021/08/24 02:43:00;;;;;;;8.77;5.97;;;15.40;99.90;;;;;;5097913;28;20159;-76
2021/08/24 02:45:37;;;;;;;8.93;6.10;;;15.40;99.90;;;;;;5078882;28;20191;-78
2021/08/24 02:48:08;;;;;;;9.07;6.10;;;15.40;99.90;;;;;;5075598;28;20524;-78
2021/08/24 02:50:34;;;;;;;7.47;6.33;;;15.40;99.90;;;;;;5076387;28;20599;-77
2021/08/24 02:53:03;;;;;;;9.03;6.30;;;15.40;99.90;;;;;;5056485;28;20177;-77
2021/08/24 02:55:29;;;;;;;11.10;6.80;;;15.30;99.90;;;;;;5073257;28;20253;-79
2021/08/24 02:58:01;;;;;;;8.27;6.20;;;15.30;99.90;;;;;;5073211;28;20239;-77
2021/08/24 03:00:27;;;;;;;8.47;6.07;;;15.30;99.90;;;;;;5073491;28;20593;-77
2021/08/24 03:02:52;;;;;;;9.37;6.30;;;15.30;99.90;;;;;;5073323;28;20206;-79
2021/08/24 03:05:18;;;;;;;6.60;5.87;;;15.20;99.90;;;;;;5055305;28;20220;-77
2021/08/24 03:07:44;;;;;;;8.93;6.83;;;15.30;99.90;;;;;;5073509;28;20169;-78
2021/08/24 03:10:14;;;;;;;8.53;6.07;;;15.30;99.90;;;;;;5079409;28;20213;-77
2021/08/24 03:13:14;;;;;;;9.27;6.60;;;15.30;99.90;;;;;;5080043;28;20228;-76
2021/08/24 03:15:53;;;;;;;11.27;6.67;;;15.20;99.90;;;;;;5097377;28;20164;-78
2021/08/24 03:18:29;;;;;;;9.30;6.23;;;15.20;99.90;;;;;;5078087;28;20544;-78
2021/08/24 03:21:00;;;;;;;9.13;7.03;;;15.10;99.90;;;;;;5079372;28;20228;-77
2021/08/24 03:23:29;;;;;;;9.13;6.33;;;15.10;99.90;;;;;;5076743;28;20229;-77
2021/08/24 03:25:56;;;;;;;9.97;6.87;;;15.10;99.90;;;;;;5077807;28;20167;-79
2021/08/24 03:28:25;;;;;;;9.87;6.63;;;15.10;99.90;;;;;;5073655;28;20211;-79
2021/08/24 03:31:14;;;;;;;9.23;7.03;;;15.10;99.90;;;;;;5074221;28;20349;-79
2021/08/24 03:33:47;;;;;;;9.47;6.67;;;15.00;99.90;;;;;;5073291;28;20173;-78
2021/08/24 03:36:14;;;;;;;9.53;6.57;;;15.10;99.90;;;;;;5073262;28;20158;-77
2021/08/24 03:38:41;;;;;;;7.77;6.30;;;15.10;99.90;;;;;;5073108;28;20735;-77
2021/08/24 03:41:09;;;;;;;9.07;6.87;;;15.00;99.90;;;;;;5072915;28;20243;-79
2021/08/24 03:43:36;;;;;;;9.83;6.63;;;15.00;99.90;;;;;;5075536;28;20394;-78
2021/08/24 03:46:02;;;;;;;10.73;7.17;;;14.90;99.90;;;;;;5079041;28;20221;-76
2021/08/24 03:48:28;;;;;;;12.47;7.20;;;14.90;99.90;;;;;;5074378;28;20173;-78
2021/08/24 03:50:53;;;;;;;9.63;7.07;;;14.90;99.90;;;;;;5073039;28;20213;-77
2021/08/24 03:53:19;;;;;;;10.63;7.30;;;14.90;99.90;;;;;;5073337;28;20246;-78
2021/08/24 03:55:45;;;;;;;10.67;7.40;;;15.00;99.90;;;;;;5076827;28;20227;-77
2021/08/24 03:58:12;;;;;;;9.27;7.20;;;14.90;99.90;;;;;;5077806;28;20168;-78
2021/08/24 04:00:41;;;;;;;10.37;7.40;;;14.90;99.90;;;;;;5077579;28;20220;-77
2021/08/24 04:03:07;;;;;;;8.10;7.10;;;14.90;99.90;;;;;;5079025;28;20177;-78
2021/08/24 04:05:33;;;;;;;8.77;7.27;;;14.90;99.90;;;;;;5061900;28;20177;-78
2021/08/24 04:08:00;;;;;;;10.83;7.63;;;14.90;99.90;;;;;;5078958;28;20160;-79
2021/08/24 04:10:26;;;;;;;13.27;8.20;;;14.80;99.90;;;;;;5076682;28;20212;-79
2021/08/24 04:12:51;;;;;;;13.37;7.77;;;14.90;99.90;;;;;;5076516;28;20164;-78
2021/08/24 04:15:17;;;;;;;9.37;6.97;;;14.90;99.90;;;;;;5076825;28;20170;-78
2021/08/24 04:17:42;;;;;;;8.13;7.17;;;14.90;99.90;;;;;;5058126;28;20177;-77
2021/08/24 04:20:11;;;;;;;11.90;7.43;;;14.80;99.90;;;;;;5075809;28;20283;-79
2021/08/24 04:22:42;;;;;;;9.43;7.17;;;14.80;99.90;;;;;;5075893;28;20176;-79
2021/08/24 04:25:09;;;;;;;12.07;7.70;;;14.80;99.90;;;;;;5075683;28;20528;-78
2021/08/24 04:27:35;;;;;;;9.30;7.17;;;14.80;99.90;;;;;;5057765;28;20228;-79
2021/08/24 04:30:01;;;;;;;10.90;7.30;;;14.80;99.90;;;;;;5075720;28;20218;-79
2021/08/24 04:32:29;;;;;;;11.60;7.50;;;14.70;99.90;;;;;;5075735;28;20177;-78
2021/08/24 04:34:55;;;;;;;10.60;7.30;;;14.70;99.90;;;;;;5075475;28;20263;-79
2021/08/24 04:37:22;;;;;;;10.47;6.83;;;14.70;99.90;;;;;;5057776;28;20654;-77
2021/08/24 04:39:48;;;;;;;8.70;7.23;;;14.60;99.90;;;;;;5075383;28;20195;-77
2021/08/24 04:42:14;;;;;;;11.40;7.33;;;14.80;99.90;;;;;;5075607;28;20166;-79
2021/08/24 04:44:40;;;;;;;13.27;7.40;;;14.70;99.90;;;;;;5075647;28;20587;-78
2021/08/24 04:47:06;;;;;;;12.80;7.30;;;14.60;99.90;;;;;;5075697;28;20663;-78
2021/08/24 04:49:32;;;;;;;10.47;7.67;;;14.70;99.90;;;;;;5075016;28;20220;-78
2021/08/24 04:51:58;;;;;;;12.07;6.63;;;14.60;99.90;;;;;;5075633;28;20260;-78
2021/08/24 04:54:24;;;;;;;10.63;7.00;;;14.50;99.90;;;;;;5075199;28;20172;-77
2021/08/24 04:56:50;;;;;;;9.80;7.27;;;14.60;99.90;;;;;;5075413;28;20196;-78
2021/08/24 04:59:15;;;;;;;12.10;7.70;;;14.50;99.90;;;;;;5075138;28;20539;-78
2021/08/24 05:01:41;;;;;;;10.13;7.67;;;14.50;99.90;;;;;;5075268;28;20169;-78
2021/08/24 05:04:07;;;;;;;11.40;7.77;;;14.50;99.90;;;;;;5075701;28;20168;-79
2021/08/24 05:06:33;;;;;;;8.93;7.10;;;14.50;99.90;;;;;;5075176;28;20225;-78
2021/08/24 05:08:59;;;;;;;11.00;7.40;;;14.50;99.90;;;;;;5088972;28;20200;-78
2021/08/24 05:11:25;;;;;;;12.07;7.47;;;14.50;99.90;;;;;;5099874;28;20172;-78
2021/08/24 05:13:51;;;;;;;10.60;7.40;;;14.50;99.90;;;;;;5083961;28;20166;-77
2021/08/24 05:16:17;;;;;;;16.60;7.83;;;14.50;99.90;;;;;;5078327;28;20256;-78
2021/08/24 05:18:49;;;;;;;8.77;7.33;;;14.50;99.90;;;;;;5075771;28;20177;-76
2021/08/24 05:21:18;;;;;;;10.00;6.93;;;14.50;99.90;;;;;;5075794;28;20223;-77
2021/08/24 05:23:44;;;;;;;11.13;7.43;;;14.50;99.90;;;;;;5074667;28;20644;-78
2021/08/24 05:26:13;;;;;;;9.97;7.57;;;14.50;99.90;;;;;;5074823;28;20183;-78
2021/08/24 05:28:39;;;;;;;11.53;7.53;;;14.60;99.90;;;;;;5074474;28;20192;-77
2021/08/24 05:31:05;;;;;;;11.03;7.80;;;14.50;99.90;;;;;;5074722;28;20181;-77
2021/08/24 05:33:31;;;;;;;11.40;7.77;;;14.40;99.90;;;;;;5082700;28;20158;-77
2021/08/24 05:35:58;;;;;;;10.77;7.50;;;14.50;99.90;;;;;;5099481;28;20181;-76
2021/08/24 05:38:24;;;;;;;11.97;7.57;;;14.50;99.90;;;;;;5094901;28;20184;-77
2021/08/24 05:40:50;;;;;;;10.87;7.60;;;14.50;99.90;;;;;;5077452;28;20183;-77
2021/08/24 05:43:15;;;;;;;9.90;7.47;;;14.50;99.90;;;;;;5080382;28;20172;-76
2021/08/24 05:45:59;;;;;;;10.30;7.67;;;14.50;99.90;;;;;;5096296;28;20202;-77
2021/08/24 05:48:27;;;;;;;11.37;7.97;;;14.50;99.90;;;;;;5078411;28;20169;-79
2021/08/24 05:50:53;;;;;;;11.57;7.73;;;14.60;99.90;;;;;;5056324;28;20225;-79
2021/08/24 05:53:19;;;;;;;11.97;7.60;;;14.60;99.90;;;;;;5074115;28;20221;-79
2021/08/24 05:55:46;;;;;;;11.63;7.87;;;14.60;99.90;;;;;;5073952;28;20264;-79
2021/08/24 05:58:12;;;;;;;10.43;7.63;;;14.60;99.90;;;;;;5056446;28;20173;-78
2021/08/24 06:00:40;;;;;;;10.70;8.23;;;14.60;99.90;;;;;;5074131;28;20169;-79
2021/08/24 06:03:07;;;;;;;10.37;7.37;;;14.60;99.90;;;;;;5073951;28;20169;-78
2021/08/24 06:05:38;;;;;;;9.77;7.90;;;14.70;99.90;;;;;;5074243;28;20180;-78
2021/08/24 06:08:04;;;;;;;11.13;8.30;;;14.60;99.90;;;;;;5074064;28;20163;-79
2021/08/24 06:10:30;;;;;;;13.60;7.93;;;14.60;99.90;;;;;;5073981;28;20216;-78
2021/08/24 06:12:56;;;;;;;9.90;8.07;;;14.80;99.90;;;;;;5074188;28;20216;-78
2021/08/24 06:15:22;;;;;;;10.43;7.30;;;14.70;99.90;;;;;;5077296;28;20179;-79
2021/08/24 06:17:48;;;;;;;10.00;7.50;;;14.80;99.90;;;;;;5095293;28;20203;-79
2021/08/24 06:20:14;;;;;;;12.63;7.73;;;14.80;99.90;;;;;;5079455;28;20177;-78
2021/08/24 06:22:39;;;;;;;10.43;7.80;;;14.80;99.90;;;;;;5087674;28;20176;-79
2021/08/24 06:25:06;;;;;;;10.27;7.50;;;14.80;99.90;;;;;;5075538;28;20177;-80
2021/08/24 06:27:31;;;;;;;12.10;7.67;;;14.90;99.90;;;;;;5073886;28;20189;-80
2021/08/24 06:29:57;;;;;;;12.60;7.60;;;14.90;99.90;;;;;;5073267;28;20320;-79
2021/08/24 06:32:44;;;;;;;9.33;7.37;;;15.00;99.90;;;;;;5073480;28;20259;-78
2021/08/24 06:35:10;;;;;;;9.17;7.27;;;15.00;99.90;;;;;;5071925;28;20259;-80
2021/08/24 06:37:36;;;;;;;9.60;7.53;;;15.00;99.90;;;;;;5055676;28;20218;-78
2021/08/24 06:40:03;;;;;;;11.40;7.63;;;15.00;99.90;;;;;;5073546;28;20577;-78
2021/08/24 06:42:36;;;;;;;9.60;7.47;;;15.10;99.90;;;;;;5073482;28;20173;-78
2021/08/24 06:45:02;;;;;;;9.30;7.27;;;15.10;99.90;;;;;;5073863;28;20168;-78
2021/08/24 06:47:28;;;;;;;9.00;7.67;;;15.20;99.90;;;;;;5055351;28;20170;-77
2021/08/24 06:49:55;;;;;;;11.13;7.23;;;15.40;99.90;;;;;;5072885;28;20540;-78
2021/08/24 06:52:20;;;;;;;10.67;7.03;;;15.40;99.90;;;;;;5072874;28;20200;-78
2021/08/24 06:54:46;;;;;;;7.77;6.70;;;15.50;99.90;;;;;;5053594;28;20666;-79
2021/08/24 06:57:12;;;;;;;11.73;7.80;;;15.70;99.90;;;;;;5072956;28;20255;-80
2021/08/24 06:59:38;;;;;;;9.93;7.10;;;15.50;99.90;;;;;;5072336;28;20171;-78
2021/08/24 07:02:06;;;;;;;11.87;7.30;;;15.50;99.90;;;;;;5073482;28;20525;-78
2021/08/24 07:04:33;;;;;;;10.97;7.33;;;15.50;99.90;;;;;;5039692;28;20655;-80
2021/08/24 07:06:59;;;;;;;7.97;6.60;;;15.50;99.90;;;;;;5068357;28;20518;-79
2021/08/24 07:09:24;;;;;;;11.90;7.17;;;15.50;99.90;;;;;;5062036;28;20326;-80
2021/08/24 07:11:50;;;;;;;8.17;7.10;;;15.50;99.90;;;;;;5053002;28;20207;-80
2021/08/24 07:14:16;;;;;;;9.40;6.50;;;15.50;99.90;;;;;;5054035;28;20514;-78
2021/08/24 07:16:43;;;;;;;8.17;6.97;;;15.60;99.90;;;;;;5053569;28;20250;-78
2021/08/24 07:19:09;;;;;;;10.50;9.40;;;15.60;99.90;;;;;;5053143;28;20256;-79
2021/08/24 07:21:34;;;;;;;8.87;6.70;;;15.70;99.90;;;;;;5053713;28;20213;-79
2021/08/24 07:24:00;;;;;;;12.47;7.43;;;15.90;99.90;;;;;;5053092;28;20639;-78
2021/08/24 07:26:26;;;;;;;8.73;6.70;;;15.80;99.90;;;;;;5060404;28;20224;-80
2021/08/24 07:28:52;;;;;;;8.70;6.83;;;15.80;99.90;;;;;;5077941;28;20192;-78
2021/08/24 07:31:18;;;;;;;9.60;6.70;;;15.90;99.90;;;;;;5080395;28;20187;-78
2021/08/24 07:33:44;;;;;;;10.13;6.83;;;15.90;99.90;;;;;;5068915;28;20226;-78
2021/08/24 07:36:11;;;;;;;12.73;6.60;;;16.00;99.90;;;;;;5074525;28;20176;-79
2021/08/24 07:38:40;;;;;;;9.47;6.57;;;16.10;99.90;;;;;;5042007;28;20181;-77
2021/08/24 07:41:06;;;;;;;9.10;6.43;;;16.10;99.90;;;;;;5057824;28;20161;-80
2021/08/24 07:43:33;;;;;;;7.83;6.20;;;16.20;99.80;;;;;;5058381;28;20568;-79
2021/08/24 07:45:59;;;;;;;9.67;6.40;;;16.30;99.10;;;;;;5058233;28;20270;-78
2021/08/24 07:48:25;;;;;;;10.00;6.73;;;16.30;98.80;;;;;;5039488;28;20652;-80
2021/08/24 07:50:51;;;;;;;11.80;7.20;;;16.40;98.80;;;;;;5058539;28;20319;-80
2021/08/24 07:53:19;;;;;;;9.90;6.73;;;16.50;98.20;;;;;;5057556;28;20618;-80
2021/08/24 07:55:46;;;;;;;8.17;6.70;;;16.50;98.00;;;;;;5073666;28;20157;-80
2021/08/24 07:58:11;;;;;;;8.47;7.27;;;16.60;97.20;;;;;;5080688;28;20173;-79
2021/08/24 08:00:38;;;;;;;10.37;6.93;;;16.60;96.70;;;;;;5077433;28;20211;-80
2021/08/24 08:03:04;;;;;;;8.87;6.70;;;16.70;96.50;;;;;;5068646;28;20643;-79
2021/08/24 08:05:31;;;;;;;8.03;6.63;;;16.80;95.80;;;;;;5061026;28;20183;-78
2021/08/24 08:07:58;;;;;;;7.93;6.20;;;16.80;95.20;;;;;;5058777;28;20169;-79
2021/08/24 08:10:26;;;;;;;9.10;6.40;;;16.90;94.70;;;;;;5039273;28;20583;-79
2021/08/24 08:12:55;;;;;;;11.17;6.93;;;17.00;94.20;;;;;;5038795;28;20192;-80
2021/08/24 08:15:23;;;;;;;7.87;6.13;;;17.10;94.00;;;;;;5056932;28;20176;-80
2021/08/24 08:17:50;;;;;;;10.37;6.50;;;17.10;94.20;;;;;;5057953;28;20161;-78
2021/08/24 08:20:15;;;;;;;7.63;6.23;;;17.30;93.70;;;;;;5078049;28;20191;-79
2021/08/24 08:22:43;;;;;;;11.83;6.00;;;17.30;90.50;;;;;;5059817;28;20185;-79
2021/08/24 08:25:10;;;;;;;11.67;6.37;;;17.40;91.40;;;;;;5056303;28;20195;-79
2021/08/24 08:27:35;;;;;;;7.57;6.13;;;17.50;91.10;;;;;;5056289;28;20727;-78
2021/08/24 08:30:01;;;;;;;9.43;6.07;;;17.50;91.10;;;;;;5056478;28;20236;-80
2021/08/24 08:32:30;;;;;;;8.87;5.73;;;17.70;90.50;;;;;;5056186;28;20169;-79
2021/08/24 08:34:56;;;;;;;7.97;5.70;;;17.70;87.70;;;;;;5068439;28;20173;-80
2021/08/24 08:37:23;;;;;;;7.97;5.00;;;17.70;89.70;;;;;;5057513;28;20265;-80
2021/08/24 08:39:48;;;;;;;7.67;5.30;;;17.80;88.10;;;;;;5042517;28;20184;-78
2021/08/24 08:42:35;;;;;;;8.53;5.03;;;18.00;84.80;;;;;;5055868;28;20184;-80
2021/08/24 08:45:09;;;;;;;6.00;5.00;;;18.10;80.40;;;;;;5038282;28;20235;-81
2021/08/24 08:48:02;;;;;;;7.43;5.07;;;18.10;80.30;;;;;;5037431;28;20579;-79
2021/08/24 08:50:49;;;;;;;5.83;5.07;;;18.00;80.20;;;;;;5037459;28;20217;-80
2021/08/24 08:53:24;;;;;;;8.80;5.03;;;18.10;79.70;;;;;;5056162;28;20161;-80
2021/08/24 08:56:30;;;;;;;6.80;4.30;;;18.20;78.10;;;;;;5061793;28;20188;-79
2021/08/24 08:59:19;;;;;;;8.63;5.10;;;18.30;77.20;;;;;;5072311;28;20184;-80
2021/08/24 09:01:58;;;;;;;9.23;4.57;;;18.40;75.40;;;;;;5047298;28;20173;-80
2021/08/24 09:04:38;;;;;;;6.87;4.27;;;18.40;71.60;;;;;;5056668;28;20180;-79
2021/08/24 09:07:22;;;;;;;5.60;3.93;;;18.60;72.90;;;;;;5037769;28;20625;-78
2021/08/24 09:09:48;;;;;;;6.13;3.83;;;18.70;66.40;;;;;;5054972;28;20914;-79
2021/08/24 09:12:14;;;;;;;6.70;3.83;;;18.70;65.60;;;;;;5055259;28;20248;-80
2021/08/24 09:14:39;;;;;;;5.27;3.73;;;18.80;66.10;;;;;;5055023;28;20629;-80
2021/08/24 09:17:24;;;;;;;4.87;3.43;;;19.00;61.30;;;;;;5055116;28;20169;-79
2021/08/24 09:20:21;;;;;;;9.23;4.57;;;19.10;57.50;;;;;;5037147;28;20181;-79
2021/08/24 09:22:47;;;;;;;5.17;3.63;;;19.20;58.50;;;;;;5055208;28;20165;-79
2021/08/24 09:25:51;;;;;;;8.40;3.77;;;19.30;59.60;;;;;;5053662;28;20262;-79
2021/08/24 09:28:29;;;;;;;37.00;8.30;;;19.50;55.20;;;;;;4957636;28;20206;-79
2021/08/24 09:30:55;;;;;;;6.83;3.20;;;19.60;54.50;;;;;;5044267;28;20215;-80
2021/08/24 09:33:22;;;;;;;7.37;3.30;;;19.70;46.70;;;;;;5037389;28;20173;-80
2021/08/24 09:35:48;;;;;;;5.00;3.33;;;19.70;46.00;;;;;;5054901;28;20161;-79
2021/08/24 09:38:30;;;;;;;7.73;3.33;;;19.70;53.20;;;;;;5054967;28;20676;-80
2021/08/24 09:40:57;;;;;;;5.23;3.33;;;19.80;55.30;;;;;;5054997;28;20149;-79
2021/08/24 09:43:32;;;;;;;5.93;2.70;;;19.90;48.60;;;;;;5054982;28;20169;-79
2021/08/24 09:46:04;;;;;;;7.10;2.70;;;19.80;43.00;;;;;;5054527;28;20248;-80
2021/08/24 09:48:47;;;;;;;5.30;3.13;;;19.90;41.30;;;;;;5036579;28;20644;-79
2021/08/24 09:51:33;;;;;;;5.87;2.60;;;20.00;41.50;;;;;;5054274;28;20261;-79
2021/08/24 09:54:00;;;;;;;5.80;3.07;;;20.00;38.30;;;;;;5063627;28;20165;-78
2021/08/24 09:56:36;;;;;;;6.43;2.80;;;19.90;34.50;;;;;;5079284;28;20203;-80
2021/08/24 09:59:02;;;;;;;4.17;2.70;;;20.00;27.90;;;;;;5070326;28;20192;-79
2021/08/24 10:01:47;;;;;;;5.67;2.50;;;20.10;35.20;;;;;;5054377;28;20169;-78
2021/08/24 10:04:14;;;;;;;5.50;2.70;;;20.20;31.30;;;;;;5053953;28;20175;-80
2021/08/24 10:07:00;;;;;;;5.20;3.10;;;20.40;34.70;;;;;;5054317;28;20173;-79
2021/08/24 10:09:28;;;;;;;7.20;3.40;;;20.30;24.30;;;;;;5036407;28;20204;-80
2021/08/24 10:12:13;;;;;;;4.37;3.07;;;20.20;25.00;;;;;;5036689;28;20181;-79
2021/08/24 10:14:39;;;;;;;6.53;2.80;;;20.20;28.30;;;;;;5054149;28;20208;-79
2021/08/24 10:17:34;;;;;;;4.47;2.57;;;20.30;29.70;;;;;;5054128;28;20227;-80
2021/08/24 10:20:18;;;;;;;5.30;2.50;;;20.30;26.80;;;;;;5054599;28;20174;-79
2021/08/24 10:22:48;;;;;;;7.50;2.77;;;20.40;20.00;;;;;;5075814;28;20206;-78
2021/08/24 10:25:22;;;;;;;6.07;2.83;;;20.40;17.50;;;;;;5074391;28;20185;-78
2021/08/24 10:28:19;;;;;;;4.40;2.60;;;20.40;18.40;;;;;;5045323;28;20756;-80
2021/08/24 10:30:48;;;;;;;4.67;2.57;;;20.50;19.60;;;;;;5047905;28;20300;-79
2021/08/24 10:33:48;;;;;;;5.23;2.93;;;20.60;17.40;;;;;;5054378;28;20166;-78
2021/08/24 10:36:38;;;;;;;5.50;2.70;;;20.80;15.60;;;;;;5048177;28;20183;-79
2021/08/24 10:39:22;;;;;;;5.70;2.60;;;20.80;19.20;;;;;;5054151;28;20580;-78
2021/08/24 10:42:10;;;;;;;4.80;2.40;;;20.90;1.00;;;;;;5053499;28;20173;-79
2021/08/24 10:44:52;;;;;;;4.70;2.40;;;21.10;1.00;;;;;;5042103;28;20598;-79
2021/08/24 10:47:27;;;;;;;6.53;2.50;;;21.10;1.00;;;;;;5057450;28;20615;-79
2021/08/24 10:49:54;;;;;;;3.83;2.20;;;21.10;1.00;;;;;;5056234;28;20218;-79
2021/08/24 10:52:40;;;;;;;6.60;2.60;;;20.90;1.00;;;;;;5053805;28;20177;-79
2021/08/24 10:55:20;;;;;;;4.43;2.40;;;20.90;1.00;;;;;;5053884;28;20203;-80
2021/08/24 10:57:49;;;;;;;5.53;2.57;;;20.90;1.00;;;;;;5054064;28;20169;-79
2021/08/24 11:00:39;;;;;;;6.43;2.53;;;20.90;1.00;;;;;;5055368;28;20297;-78
2021/08/24 11:03:29;;;;;;;5.37;2.47;;;21.10;1.00;;;;;;5053804;28;20169;-80
2021/08/24 11:06:32;;;;;;;10.53;3.53;;;21.20;1.00;;;;;;5037340;28;20204;-79
2021/08/24 11:09:25;;;;;;;6.23;2.43;;;21.20;1.00;;;;;;5003023;28;20189;-80
2021/08/24 11:12:45;;;;;;;3.30;2.30;;;21.20;1.00;;;;;;5055082;28;20174;-79
2021/08/24 11:15:26;;;;;;;6.27;2.60;;;21.30;1.00;;;;;;5000450;28;20175;-80
2021/08/24 11:18:03;;;;;;;4.30;2.13;;;21.30;1.00;;;;;;5053794;28;20178;-79
2021/08/24 11:20:49;;;;;;;4.93;2.17;;;21.20;1.00;;;;;;5035951;28;20198;-80
2021/08/24 11:23:23;;;;;;;3.77;2.00;;;21.20;1.00;;;;;;5054965;28;20171;-80
2021/08/24 11:26:07;;;;;;;3.87;2.37;;;21.10;1.00;;;;;;5069251;28;20154;-79
2021/08/24 11:28:32;;;;;;;6.03;2.40;;;21.20;1.00;;;;;;5077033;28;20202;-80
2021/08/24 11:31:23;;;;;;;5.20;2.43;;;21.30;1.00;;;;;;5067450;28;20270;-80
2021/08/24 11:33:56;;;;;;;4.07;2.10;;;21.50;1.00;;;;;;5038576;28;20639;-77
2021/08/24 11:36:56;;;;;;;3.57;1.90;;;21.50;1.00;;;;;;5055881;28;20261;-78
2021/08/24 11:39:43;;;;;;;7.37;2.10;;;21.50;1.00;;;;;;5035869;28;20588;-79
2021/08/24 11:42:17;;;;;;;4.17;2.10;;;21.70;1.00;;;;;;5066159;28;20198;-79
2021/08/24 11:44:50;;;;;;;4.90;2.90;;;21.70;1.00;;;;;;5073988;28;20180;-80
2021/08/24 11:47:23;;;;;;;3.63;2.40;;;21.80;1.00;;;;;;5056699;28;20508;-79
2021/08/24 11:49:57;;;;;;;6.07;2.63;;;21.80;1.00;;;;;;5054516;28;20231;-79
2021/08/24 11:53:05;;;;;;;8.53;2.70;;;21.80;1.00;;;;;;5053940;28;20177;-78
2021/08/24 11:55:32;;;;;;;11.73;3.07;;;21.80;1.00;;;;;;5049407;28;20191;-79
2021/08/24 11:58:20;;;;;;;6.87;2.43;;;21.80;1.00;;;;;;5068585;28;20173;-81
2021/08/24 12:00:59;;;;;;;4.87;2.33;;;21.60;1.00;;;;;;5066784;28;20180;-79
2021/08/24 12:03:25;;;;;;;3.33;2.00;;;21.50;1.00;;;;;;5044912;28;20233;-79
2021/08/24 12:06:11;;;;;;;3.93;2.00;;;21.30;1.00;;;;;;5075004;28;20183;-79
2021/08/24 12:08:59;;;;;;;4.30;2.13;;;21.40;1.00;;;;;;5064691;28;20161;-79
2021/08/24 12:11:49;;;;;;;6.80;2.80;;;21.40;1.00;;;;;;5055789;28;20251;-79
2021/08/24 12:14:56;;;;;;;5.73;2.70;;;21.40;1.00;;;;;;5035059;28;20168;-79
2021/08/24 12:17:32;;;;;;;4.77;2.23;;;21.50;1.00;;;;;;5056885;28;20621;-78
2021/08/24 12:20:01;;;;;;;4.30;2.27;;;21.50;1.00;;;;;;5038467;28;20259;-79
2021/08/24 12:22:30;;;;;;;5.43;2.30;;;21.50;1.00;;;;;;5064663;28;20613;-79
2021/08/24 12:25:02;;;;;;;3.70;2.13;;;21.60;1.00;;;;;;5076076;28;20172;-79
2021/08/24 12:27:28;;;;;;;8.87;2.80;;;21.60;1.00;;;;;;5076167;28;20188;-81
2021/08/24 12:30:18;;;;;;;5.67;2.50;;;21.50;1.00;;;;;;5076167;28;20245;-78
2021/08/24 12:32:49;;;;;;;4.13;2.27;;;21.50;1.00;;;;;;5075869;28;20647;-80
2021/08/24 12:35:28;;;;;;;5.77;2.73;;;21.50;1.00;;;;;;5075823;28;20173;-80
2021/08/24 12:37:58;;;;;;;4.63;2.40;;;21.40;1.00;;;;;;5075748;28;20168;-79
2021/08/24 12:40:24;;;;;;;4.83;2.67;;;21.50;1.00;;;;;;5075931;28;20247;-78
2021/08/24 12:43:02;;;;;;;4.50;2.47;;;21.50;1.00;;;;;;5076248;28;20640;-79
2021/08/24 12:45:31;;;;;;;5.07;3.37;;;21.50;1.00;;;;;;5051934;28;20658;-79
2021/08/24 12:48:18;;;;;;;4.00;2.30;;;21.80;1.00;;;;;;5040229;28;20718;-80
2021/08/24 12:50:55;;;;;;;5.13;2.57;;;21.90;1.00;;;;;;5055452;28;20217;-79
2021/08/24 12:53:43;;;;;;;4.03;2.47;;;22.10;1.00;;;;;;5038293;28;20547;-79
2021/08/24 12:56:11;;;;;;;8.43;2.97;;;22.20;1.00;;;;;;5056496;28;20230;-78
2021/08/24 12:58:48;;;;;;;9.80;3.33;;;22.00;1.00;;;;;;5038968;28;20580;-79
2021/08/24 13:01:25;;;;;;;7.50;2.80;;;21.80;1.00;;;;;;5079684;28;20165;-78
2021/08/24 13:04:14;;;;;;;5.77;2.87;;;21.80;1.00;;;;;;5079750;28;20154;-80
2021/08/24 13:06:46;;;;;;;6.00;2.83;;;21.80;1.00;;;;;;5057184;28;20172;-80
2021/08/24 13:09:38;;;;;;;5.37;2.60;;;22.00;1.00;;;;;;5056462;28;20696;-78
2021/08/24 13:12:13;;;;;;;6.67;2.53;;;22.10;1.00;;;;;;5055661;28;20207;-79
2021/08/24 13:14:52;;;;;;;4.63;2.07;;;22.20;1.00;;;;;;5037723;28;20195;-80